Time;durP1;ratioP1;P1;durP2;ratioP2;P2;SDS_P1;SDS_P2;PMS_P1;PMS_P2;Temp;Humidity;BMP_temperature;BMP_pressure;BME280_temperature;BME280_humidity;BME280_pressure;Samples;Min_cycle;Max_cycle;Signal;HPM_P1;HPM_P2
2023/06/24 14:14:01;;;;;;;;;6.50;5.50;;;;;18.40;90.57;98944.63;2818026;26;1641936;-70
2023/06/24 14:16:28;;;;;;;;;3.67;3.67;;;;;18.52;89.47;98938.03;4990716;28;102568;-70
2023/06/24 14:18:55;;;;;;;;;5.33;4.67;;;;;18.55;90.41;98934.81;4994785;28;102259;-70
2023/06/24 14:21:31;;;;;;;;;7.33;6.67;;;;;18.69;87.42;98938.94;4988654;27;102366;-71
2023/06/24 14:24:23;;;;;;;;;6.00;5.33;;;;;18.72;83.96;98932.16;4990078;28;103092;-70
2023/06/24 14:27:13;;;;;;;;;4.33;4.33;;;;;18.73;81.30;98938.47;4989028;28;101847;-70
2023/06/24 14:29:59;;;;;;;;;5.33;5.33;;;;;18.82;81.75;98931.50;4988002;28;102453;-70
2023/06/24 14:32:37;;;;;;;;;4.00;4.00;;;;;18.93;82.22;98922.38;4976327;28;102579;-70
2023/06/24 14:35:16;;;;;;;;;4.67;4.00;;;;;19.06;79.57;98931.13;4990391;28;103089;-70
2023/06/24 14:38:03;;;;;;;;;4.00;4.00;;;;;19.13;81.20;98936.44;4978424;28;102349;-70
2023/06/24 14:40:50;;;;;;;;;3.67;3.33;;;;;19.20;80.24;98923.41;4995617;28;102215;-70
2023/06/24 14:43:38;;;;;;;;;3.00;3.00;;;;;19.30;80.11;98931.81;4985177;28;102228;-70
2023/06/24 14:46:37;;;;;;;;;4.00;4.00;;;;;19.29;79.74;98923.81;4981621;28;107848;-69
2023/06/24 14:49:22;;;;;;;;;4.33;4.33;;;;;19.28;80.14;98920.25;4994925;28;101956;-70
2023/06/24 14:52:08;;;;;;;;;3.00;3.00;;;;;19.39;79.26;98922.06;4964786;28;102188;-70
2023/06/24 14:54:58;;;;;;;;;5.00;5.00;;;;;19.18;78.06;98914.63;4986103;28;102465;-70
2023/06/24 14:57:46;;;;;;;;;3.00;3.00;;;;;19.23;78.85;98911.94;4986388;28;107016;-70
2023/06/24 15:00:40;;;;;;;;;3.00;3.00;;;;;19.37;81.30;98913.25;4995233;28;102386;-70
2023/06/24 15:03:23;;;;;;;;;4.00;3.67;;;;;19.27;79.04;98918.59;4989632;28;102118;-70
2023/06/24 15:06:10;;;;;;;;;5.00;5.00;;;;;19.24;79.71;98916.34;4997718;28;102057;-70
2023/06/24 15:08:56;;;;;;;;;3.00;3.00;;;;;19.27;80.42;98915.84;4985772;28;108074;-70
2023/06/24 15:11:45;;;;;;;;;4.00;4.00;;;;;19.34;81.16;98912.94;4986939;28;102425;-70
2023/06/24 15:14:32;;;;;;;;;4.67;3.33;;;;;19.43;81.17;98912.28;4995693;28;102104;-70
2023/06/24 15:17:14;;;;;;;;;5.33;5.00;;;;;19.36;78.80;98917.06;4985057;28;103036;-70
2023/06/24 15:20:01;;;;;;;;;4.67;4.67;;;;;19.37;80.28;98920.66;4990022;28;103019;-70
2023/06/24 15:22:47;;;;;;;;;5.33;5.00;;;;;19.25;80.27;98914.44;4990054;28;102174;-70
2023/06/24 15:25:31;;;;;;;;;4.00;4.00;;;;;19.20;80.73;98917.91;4992257;28;102493;-70
2023/06/24 15:28:18;;;;;;;;;4.00;4.00;;;;;19.06;80.16;98925.63;4991719;28;102015;-70
2023/06/24 15:30:56;;;;;;;;;6.00;6.00;;;;;19.05;79.54;98921.22;4997025;28;104213;-71
2023/06/24 15:33:22;;;;;;;;;6.67;6.00;;;;;18.98;80.12;98922.47;4999020;28;101775;-70
2023/06/24 15:35:49;;;;;;;;;5.00;5.00;;;;;19.02;79.79;98929.13;4992945;28;102351;-70
2023/06/24 15:38:16;;;;;;;;;6.00;6.00;;;;;18.98;78.78;98919.72;4999692;28;102032;-70
2023/06/24 15:40:43;;;;;;;;;5.33;4.00;;;;;18.94;80.74;98926.78;5001056;28;103963;-70
2023/06/24 15:43:11;;;;;;;;;4.00;4.00;;;;;19.01;79.46;98931.03;4992316;28;102860;-71
2023/06/24 15:45:38;;;;;;;;;6.00;5.00;;;;;18.92;79.83;98924.28;4989669;28;102312;-70
2023/06/24 15:48:05;;;;;;;;;5.00;5.00;;;;;18.90;79.65;98929.19;4984212;28;104085;-70
2023/06/24 15:50:32;;;;;;;;;2.67;2.67;;;;;18.95;78.14;98925.72;4989706;28;108778;-70
2023/06/24 15:52:59;;;;;;;;;6.00;5.00;;;;;18.93;79.44;98923.22;4992532;28;102592;-70
2023/06/24 15:55:26;;;;;;;;;4.67;4.67;;;;;18.86;80.08;98932.69;4993197;28;101998;-72
2023/06/24 15:57:53;;;;;;;;;3.67;3.67;;;;;18.78;78.97;98936.63;4993769;28;101945;-72
2023/06/24 16:00:20;;;;;;;;;4.00;3.67;;;;;18.67;78.45;98923.81;4998819;28;104014;-71
2023/06/24 16:02:46;;;;;;;;;4.00;4.00;;;;;18.73;79.42;98935.72;4988038;28;102004;-71
2023/06/24 16:05:14;;;;;;;;;4.33;3.00;;;;;18.64;78.76;98933.34;4974758;28;101967;-71
2023/06/24 16:07:40;;;;;;;;;5.00;5.00;;;;;18.60;79.15;98929.44;4982164;28;102080;-71
2023/06/24 16:10:08;;;;;;;;;3.00;3.00;;;;;18.62;79.45;98926.47;4994373;28;104173;-71
2023/06/24 16:12:35;;;;;;;;;5.00;5.00;;;;;18.66;79.55;98933.13;4984221;28;101802;-71
2023/06/24 16:15:02;;;;;;;;;4.00;3.00;;;;;18.70;78.65;98928.81;4984420;28;102742;-71
2023/06/24 16:17:29;;;;;;;;;3.33;3.00;;;;;18.53;78.11;98919.72;4990942;28;102632;-71
2023/06/24 16:19:56;;;;;;;;;2.00;2.00;;;;;18.63;80.00;98930.88;4987079;28;103970;-71
2023/06/24 16:22:23;;;;;;;;;3.00;2.00;;;;;18.60;79.75;98928.59;4990501;28;102515;-71
2023/06/24 16:24:50;;;;;;;;;4.00;4.00;;;;;18.51;77.47;98930.88;4992057;28;102444;-70
2023/06/24 16:27:17;;;;;;;;;5.00;4.67;;;;;18.37;77.81;98929.50;4997751;28;103421;-71
2023/06/24 16:29:43;;;;;;;;;4.00;4.00;;;;;18.34;79.10;98934.63;4996710;28;104451;-70
2023/06/24 16:32:10;;;;;;;;;3.00;3.00;;;;;18.01;78.59;98903.28;5000203;28;102255;-70
2023/06/24 16:34:37;;;;;;;;;3.00;3.00;;;;;18.19;78.24;98935.16;4983539;28;102233;-68
2023/06/24 16:37:04;;;;;;;;;4.33;4.33;;;;;18.10;78.68;98923.75;5000395;28;102117;-71
2023/06/24 16:39:31;;;;;;;;;2.33;2.33;;;;;18.13;78.19;98927.91;4996958;28;104150;-70
2023/06/24 16:41:58;;;;;;;;;2.00;2.00;;;;;18.15;78.77;98928.50;4993504;28;102258;-71
2023/06/24 16:44:26;;;;;;;;;3.33;2.00;;;;;18.18;78.94;98930.75;4978519;28;102818;-70
2023/06/24 16:46:53;;;;;;;;;3.00;3.00;;;;;18.18;79.45;98931.59;4987285;28;102193;-71
2023/06/24 16:49:20;;;;;;;;;2.00;2.00;;;;;18.20;79.96;98931.34;4991935;28;103138;-72
2023/06/24 16:51:47;;;;;;;;;0.67;0.67;;;;;18.24;80.43;98925.13;4992728;28;101990;-71
2023/06/24 16:54:14;;;;;;;;;0.00;0.00;;;;;18.28;80.98;98934.53;4981346;28;102331;-71
2023/06/24 16:56:40;;;;;;;;;2.00;1.00;;;;;18.24;79.81;98929.78;4986551;28;102334;-71
2023/06/24 16:59:07;;;;;;;;;0.67;0.67;;;;;18.19;78.24;98926.97;4992912;28;104087;-71
2023/06/24 17:01:34;;;;;;;;;1.00;1.00;;;;;18.21;80.14;98924.78;4979817;28;102100;-71
2023/06/24 17:04:01;;;;;;;;;2.00;1.00;;;;;18.18;83.82;98919.81;4973352;28;101971;-72
2023/06/24 17:06:28;;;;;;;;;2.00;2.00;;;;;18.23;83.41;98915.28;4953955;28;102358;-71
2023/06/24 17:08:56;;;;;;;;;3.00;1.33;;;;;18.22;82.40;98910.03;4985604;28;103191;-71
2023/06/24 17:11:23;;;;;;;;;0.00;0.00;;;;;18.19;80.19;98910.53;4994873;28;102304;-71
2023/06/24 17:13:50;;;;;;;;;1.00;1.00;;;;;18.10;79.82;98917.47;4988416;28;102127;-71
2023/06/24 17:16:17;;;;;;;;;0.00;0.00;;;;;18.09;80.87;98902.09;4962355;28;102411;-71
2023/06/24 17:18:44;;;;;;;;;1.00;1.00;;;;;18.12;84.79;98916.13;4989841;28;109618;-71
2023/06/24 17:21:39;;;;;;;;;1.33;1.00;;;;;18.13;82.40;98908.75;4990562;28;102349;-71
2023/06/24 17:24:06;;;;;;;;;0.00;0.00;;;;;18.10;83.46;98906.50;4986616;28;102095;-71
2023/06/24 17:26:33;;;;;;;;;1.33;1.33;;;;;18.06;84.20;98910.78;4988808;28;102260;-71
2023/06/24 17:29:00;;;;;;;;;1.00;1.00;;;;;18.06;83.55;98908.03;4981196;28;104127;-71
2023/06/24 17:31:26;;;;;;;;;1.00;1.00;;;;;18.06;83.04;98908.88;4956523;28;102015;-71
2023/06/24 17:33:54;;;;;;;;;1.00;1.00;;;;;18.08;84.59;98906.75;4993158;28;102095;-71
2023/06/24 17:36:24;;;;;;;;;2.33;2.33;;;;;17.98;82.03;98908.41;4987974;28;102403;-71
2023/06/24 17:38:51;;;;;;;;;2.33;2.33;;;;;17.98;84.59;98913.91;4992369;28;104080;-71
2023/06/24 17:41:19;;;;;;;;;2.00;2.00;;;;;18.01;84.20;98916.16;4986899;28;101962;-71
2023/06/24 17:43:46;;;;;;;;;1.00;1.00;;;;;17.98;85.11;98900.22;4992762;28;102332;-71
2023/06/24 17:46:13;;;;;;;;;2.00;2.00;;;;;17.98;85.55;98902.94;4987219;28;102094;-71
2023/06/24 17:48:40;;;;;;;;;3.00;2.00;;;;;17.96;85.30;98894.16;4987725;28;104198;-71
2023/06/24 17:51:06;;;;;;;;;2.00;2.00;;;;;17.95;85.28;98897.97;4995921;28;102036;-71
2023/06/24 17:53:33;;;;;;;;;2.00;2.00;;;;;17.94;86.06;98896.31;4982302;28;101964;-71
2023/06/24 17:56:00;;;;;;;;;1.00;1.00;;;;;17.90;86.51;98887.75;4992378;28;102143;-71
2023/06/24 17:58:27;;;;;;;;;1.67;1.67;;;;;17.77;87.50;98877.91;4982458;28;104035;-71
2023/06/24 18:00:54;;;;;;;;;1.00;1.00;;;;;17.78;88.55;98882.31;4998545;28;102094;-71
2023/06/24 18:03:23;;;;;;;;;0.00;0.00;;;;;17.79;88.21;98896.78;4994991;28;101953;-68
2023/06/24 18:05:50;;;;;;;;;1.00;1.00;;;;;17.80;88.83;98896.56;4979474;28;101965;-71
2023/06/24 18:08:17;;;;;;;;;1.00;1.00;;;;;17.85;87.96;98904.06;4999483;28;108739;-71
2023/06/24 18:10:44;;;;;;;;;0.67;0.67;;;;;17.87;86.69;98890.97;4986369;28;102038;-71
2023/06/24 18:13:11;;;;;;;;;0.67;0.67;;;;;17.92;88.43;98893.00;4990902;28;101954;-71
2023/06/24 18:15:38;;;;;;;;;1.00;1.00;;;;;17.95;86.30;98884.28;4992001;28;101836;-71
2023/06/24 18:18:05;;;;;;;;;1.00;1.00;;;;;17.97;86.38;98884.88;5000649;28;104075;-71
2023/06/24 18:20:32;;;;;;;;;2.00;2.00;;;;;18.00;84.57;98895.34;4990535;28;102273;-71
2023/06/24 18:22:59;;;;;;;;;1.67;1.67;;;;;18.02;85.22;98893.19;4995912;28;102258;-71
2023/06/24 18:25:26;;;;;;;;;3.00;3.00;;;;;18.04;85.82;98897.34;4999632;28;102351;-71
2023/06/24 18:27:52;;;;;;;;;4.00;4.00;;;;;18.04;85.18;98893.78;4994432;28;104036;-70
2023/06/24 18:30:19;;;;;;;;;2.00;2.00;;;;;18.02;84.91;98894.03;5000567;28;102249;-71
2023/06/24 18:32:46;;;;;;;;;5.00;3.00;;;;;18.03;82.81;98900.31;4980387;28;102020;-71
2023/06/24 18:35:13;;;;;;;;;2.00;2.00;;;;;18.03;83.36;98897.59;4993692;28;102727;-71
2023/06/24 18:37:40;;;;;;;;;2.00;2.00;;;;;18.02;84.04;98893.19;4991212;28;104049;-71
2023/06/24 18:40:07;;;;;;;;;1.00;1.00;;;;;18.01;85.08;98892.34;4988172;28;101923;-71
2023/06/24 18:42:34;;;;;;;;;3.00;2.00;;;;;17.98;85.26;98892.00;4989235;28;102035;-71
2023/06/24 18:45:01;;;;;;;;;1.00;1.00;;;;;17.70;85.26;98847.09;4987038;28;103983;-71
2023/06/24 18:47:28;;;;;;;;;2.00;2.00;;;;;17.90;85.48;98890.50;4989919;28;104183;-72
2023/06/24 18:49:55;;;;;;;;;1.33;1.33;;;;;17.92;85.85;98893.00;4996394;28;102190;-71
2023/06/24 18:52:22;;;;;;;;;3.00;3.00;;;;;17.92;86.86;98893.00;4993792;28;102172;-71
2023/06/24 18:54:49;;;;;;;;;3.00;3.00;;;;;17.81;89.22;98887.28;4984923;28;101965;-71
2023/06/24 18:57:16;;;;;;;;;1.00;1.00;;;;;17.77;87.59;98886.13;4983322;28;104193;-71
2023/06/24 18:59:43;;;;;;;;;2.67;2.67;;;;;17.76;87.76;98898.13;4987119;28;102379;-71
2023/06/24 19:02:10;;;;;;;;;2.33;2.00;;;;;17.72;87.34;98891.47;4976399;28;103017;-71
2023/06/24 19:04:37;;;;;;;;;2.67;2.00;;;;;17.68;87.69;98893.03;4999464;28;102127;-71
2023/06/24 19:07:04;;;;;;;;;2.33;2.00;;;;;17.63;88.09;98895.66;4988295;28;104053;-71
2023/06/24 19:09:32;;;;;;;;;2.00;2.00;;;;;17.58;87.76;98903.72;4979289;28;102328;-71
2023/06/24 19:12:00;;;;;;;;;2.00;1.67;;;;;17.53;87.82;98898.09;4988921;28;103319;-71
2023/06/24 19:14:28;;;;;;;;;2.00;2.00;;;;;17.51;87.17;98904.91;4992420;28;102113;-71
2023/06/24 19:16:55;;;;;;;;;2.00;1.33;;;;;17.41;87.66;98891.81;4974706;28;104058;-69
2023/06/24 19:19:22;;;;;;;;;2.67;2.67;;;;;17.38;88.18;98895.84;4989988;28;102258;-72
2023/06/24 19:21:49;;;;;;;;;1.67;1.00;;;;;17.36;88.70;98899.91;4989186;28;102364;-71
2023/06/24 19:24:16;;;;;;;;;1.00;1.00;;;;;17.30;88.27;98895.38;4991746;28;102438;-71
2023/06/24 19:26:43;;;;;;;;;2.33;2.33;;;;;17.27;88.08;98901.31;4991417;28;104101;-71
2023/06/24 19:29:10;;;;;;;;;1.00;1.00;;;;;17.18;88.47;98897.28;4994323;28;102050;-71
2023/06/24 19:31:37;;;;;;;;;2.00;2.00;;;;;17.12;87.48;98909.97;4990528;28;101918;-71
2023/06/24 19:34:04;;;;;;;;;3.00;3.00;;;;;17.03;87.23;98896.88;4985306;28;103100;-71
2023/06/24 19:36:31;;;;;;;;;1.33;1.33;;;;;16.98;87.01;98913.13;4994463;28;104092;-71
2023/06/24 19:39:28;;;;;;;;;2.00;2.00;;;;;16.92;88.79;98915.78;4988095;28;102007;-71
2023/06/24 19:41:55;;;;;;;;;1.00;1.00;;;;;16.85;89.73;98906.84;4998099;28;102392;-71
2023/06/24 19:44:21;;;;;;;;;1.33;1.00;;;;;16.78;89.38;98911.56;4990763;28;102452;-71
2023/06/24 19:46:48;;;;;;;;;1.00;1.00;;;;;16.70;88.71;98911.91;4993731;28;106783;-71
2023/06/24 19:49:15;;;;;;;;;1.00;1.00;;;;;16.63;89.78;98892.03;4981431;28;102304;-71
2023/06/24 19:51:43;;;;;;;;;1.67;1.00;;;;;16.61;89.80;98916.03;4991660;28;102316;-71
2023/06/24 19:54:11;;;;;;;;;1.00;1.00;;;;;16.54;89.41;98912.53;4977237;28;102143;-71
2023/06/24 19:56:37;;;;;;;;;1.33;1.00;;;;;16.48;89.55;98903.34;4995811;28;104020;-71
2023/06/24 19:59:04;;;;;;;;;2.00;2.00;;;;;16.46;90.95;98899.19;5003286;28;102533;-71
2023/06/24 20:01:31;;;;;;;;;3.00;2.33;;;;;16.44;90.68;98902.16;4935748;28;102056;-71
2023/06/24 20:03:59;;;;;;;;;1.00;1.00;;;;;16.35;91.58;98908.16;4969800;28;102111;-71
2023/06/24 20:06:26;;;;;;;;;2.00;2.00;;;;;16.23;93.34;98899.09;4995701;28;104217;-71
2023/06/24 20:08:53;;;;;;;;;3.00;3.00;;;;;16.03;94.76;98894.72;4990104;28;102067;-71
2023/06/24 20:11:20;;;;;;;;;1.67;1.67;;;;;15.96;94.41;98893.97;4994931;28;102028;-71
2023/06/24 20:13:48;;;;;;;;;3.00;2.33;;;;;15.91;94.75;98891.09;4986183;28;102096;-71
2023/06/24 20:16:15;;;;;;;;;1.00;1.00;;;;;15.74;95.24;98884.59;5000263;28;104000;-71
2023/06/24 20:18:42;;;;;;;;;2.00;2.00;;;;;15.74;95.15;98897.41;4995835;28;108000;-72
2023/06/24 20:21:13;;;;;;;;;1.67;1.00;;;;;15.67;95.44;98891.19;4994109;27;102481;-72
2023/06/24 20:23:40;;;;;;;;;2.00;2.00;;;;;15.52;95.92;98884.22;4994223;28;102028;-72
2023/06/24 20:26:07;;;;;;;;;2.67;2.67;;;;;15.48;95.93;98885.69;4992470;28;103904;-71
2023/06/24 20:28:34;;;;;;;;;1.00;1.00;;;;;15.40;96.11;98896.06;4984740;28;102306;-71
2023/06/24 20:31:02;;;;;;;;;2.67;2.00;;;;;15.31;96.89;98894.69;4990112;28;101971;-71
2023/06/24 20:33:31;;;;;;;;;2.00;2.00;;;;;15.23;97.92;98897.66;4996130;28;102201;-71
2023/06/24 20:35:58;;;;;;;;;2.00;2.00;;;;;15.14;99.74;98894.38;4990606;28;109587;-73
2023/06/24 20:38:25;;;;;;;;;2.00;2.00;;;;;15.03;100.00;98893.25;4981996;28;102372;-72
2023/06/24 20:40:54;;;;;;;;;2.25;2.25;;;;;14.99;100.00;98899.34;4996230;28;102327;-73
2023/06/24 20:43:22;;;;;;;;;2.00;2.00;;;;;14.95;100.00;98895.41;4992209;28;102447;-73
2023/06/24 20:45:54;;;;;;;;;4.00;4.00;;;;;14.93;100.00;98887.47;4990773;28;103978;-73
2023/06/24 20:48:24;;;;;;;;;4.75;3.75;;;;;14.93;100.00;98889.34;4990649;28;101801;-73
2023/06/24 20:50:51;;;;;;;;;3.25;3.25;;;;;14.80;100.00;98864.94;4980721;28;102238;-72
2023/06/24 20:53:18;;;;;;;;;4.00;3.00;;;;;14.87;99.81;98896.50;4980964;28;102468;-72
2023/06/24 20:55:45;;;;;;;;;6.00;5.00;;;;;14.83;99.57;98899.88;4996485;28;104014;-72
2023/06/24 20:58:11;;;;;;;;;3.50;3.00;;;;;14.80;100.00;98903.91;4983070;28;102356;-72
2023/06/24 21:00:38;;;;;;;;;5.00;5.00;;;;;14.77;100.00;98887.97;4999616;28;102376;-72
2023/06/24 21:03:07;;;;;;;;;3.25;2.00;;;;;14.72;100.00;98898.72;4968605;28;102941;-73
2023/06/24 21:05:34;;;;;;;;;3.00;2.75;;;;;14.67;100.00;98895.81;4985135;28;104289;-72
2023/06/24 21:08:00;;;;;;;;;2.50;2.50;;;;;14.63;100.00;98895.41;4973378;28;102080;-73
2023/06/24 21:10:27;;;;;;;;;4.25;4.00;;;;;14.59;100.00;98893.38;4972218;28;102363;-72
2023/06/24 21:12:54;;;;;;;;;4.00;3.50;;;;;14.59;100.00;98896.91;4984426;28;102033;-71
2023/06/24 21:15:25;;;;;;;;;3.25;2.50;;;;;14.53;100.00;98895.09;4994065;28;109475;-71
2023/06/24 21:17:52;;;;;;;;;3.00;3.00;;;;;14.46;100.00;98898.88;4998928;28;102472;-71
2023/06/24 21:20:19;;;;;;;;;4.00;3.00;;;;;14.36;100.00;98901.25;4976557;28;101970;-72
2023/06/24 21:22:46;;;;;;;;;4.50;4.00;;;;;14.32;100.00;98905.44;4990041;28;104736;-71
2023/06/24 21:25:12;;;;;;;;;4.25;4.25;;;;;14.29;100.00;98896.66;4973587;28;104100;-71
2023/06/24 21:27:39;;;;;;;;;5.25;5.25;;;;;14.28;100.00;98905.00;4971401;28;102179;-71
2023/06/24 21:30:07;;;;;;;;;5.00;4.50;;;;;14.26;100.00;98897.09;4970441;28;102049;-71
2023/06/24 21:32:33;;;;;;;;;2.00;2.00;;;;;14.22;100.00;98895.84;4980411;28;102014;-71
2023/06/24 21:35:01;;;;;;;;;3.00;3.00;;;;;14.23;100.00;98905.66;4946740;28;108859;-72
2023/06/24 21:37:28;;;;;;;;;4.75;4.25;;;;;14.26;100.00;98885.38;4990989;28;102104;-72
2023/06/24 21:39:55;;;;;;;;;5.00;3.50;;;;;14.27;100.00;98887.84;4981237;28;102776;-72
2023/06/24 21:42:22;;;;;;;;;4.50;4.00;;;;;14.27;100.00;98895.22;4985035;28;102140;-72
2023/06/24 21:44:49;;;;;;;;;4.00;3.00;;;;;14.23;100.00;98893.94;4989573;28;104012;-72
2023/06/24 21:47:16;;;;;;;;;4.25;3.25;;;;;14.24;100.00;98896.47;4980249;28;101957;-72
2023/06/24 21:49:43;;;;;;;;;3.75;3.75;;;;;14.21;100.00;98896.91;4993983;28;102859;-72
2023/06/24 21:52:10;;;;;;;;;3.50;3.50;;;;;14.19;100.00;98890.00;4980184;28;104133;-72
2023/06/24 21:54:37;;;;;;;;;3.50;3.50;;;;;14.17;100.00;98894.84;4984599;28;103840;-71
2023/06/24 21:57:04;;;;;;;;;7.00;6.00;;;;;14.16;100.00;98894.00;4994236;28;102052;-71
2023/06/24 21:59:31;;;;;;;;;6.00;4.75;;;;;14.15;100.00;98895.03;4986411;28;102628;-72
2023/06/24 22:02:01;;;;;;;;;4.00;3.00;;;;;14.10;100.00;98886.69;4960246;28;102487;-72
2023/06/24 22:04:28;;;;;;;;;2.75;2.25;;;;;14.09;100.00;98895.94;4989350;28;108909;-71
2023/06/24 22:06:55;;;;;;;;;2.00;2.00;;;;;13.99;100.00;98873.78;4980933;28;102005;-71
2023/06/24 22:09:22;;;;;;;;;3.25;3.25;;;;;14.10;100.00;98896.72;4982135;28;102068;-71
2023/06/24 22:11:49;;;;;;;;;3.00;3.00;;;;;14.01;100.00;98888.00;4986211;28;102207;-71
2023/06/24 22:14:17;;;;;;;;;5.75;3.25;;;;;14.05;100.00;98896.56;4975599;28;103994;-71
2023/06/24 22:16:44;;;;;;;;;5.00;4.00;;;;;14.02;100.00;98895.09;4988074;28;102792;-72
2023/06/24 22:19:11;;;;;;;;;5.00;4.00;;;;;13.99;100.00;98892.81;4944194;28;102555;-72
2023/06/24 22:21:38;;;;;;;;;4.00;4.00;;;;;13.97;100.00;98888.63;4993595;28;102067;-72
2023/06/24 22:24:05;;;;;;;;;4.25;3.00;;;;;13.93;100.00;98890.97;4996298;28;103966;-71
2023/06/24 22:26:32;;;;;;;;;5.50;4.00;;;;;13.93;100.00;98890.13;4998090;28;102282;-71
2023/06/24 22:28:59;;;;;;;;;5.50;5.50;;;;;13.83;100.00;98896.84;4995165;28;101965;-72
2023/06/24 22:31:26;;;;;;;;;5.00;4.50;;;;;13.85;100.00;98889.31;4997682;27;102032;-72
2023/06/24 22:33:53;;;;;;;;;3.75;3.75;;;;;13.83;100.00;98885.13;4992861;28;104057;-72
2023/06/24 22:36:20;;;;;;;;;5.00;5.00;;;;;13.81;100.00;98892.69;4995932;27;102849;-72
2023/06/24 22:38:46;;;;;;;;;4.00;4.00;;;;;13.79;100.00;98883.91;4997143;28;102156;-72
2023/06/24 22:41:13;;;;;;;;;4.25;4.25;;;;;13.74;100.00;98879.09;4998428;27;102076;-71
2023/06/24 22:44:05;;;;;;;;;4.00;4.00;;;;;13.77;100.00;98886.03;4977386;28;106438;-72
2023/06/24 22:46:32;;;;;;;;;2.50;2.00;;;;;13.75;100.00;98888.09;4970494;27;102069;-72
2023/06/24 22:48:59;;;;;;;;;2.50;2.50;;;;;13.72;100.00;98883.09;4991172;28;102078;-72
2023/06/24 22:51:26;;;;;;;;;2.75;2.75;;;;;13.69;100.00;98888.94;4979574;28;102246;-72
2023/06/24 22:53:53;;;;;;;;;3.50;3.00;;;;;13.66;100.00;98886.66;4990846;28;108732;-72
2023/06/24 22:56:20;;;;;;;;;3.50;3.50;;;;;13.65;100.00;98885.84;4994212;28;103886;-72
2023/06/24 22:58:47;;;;;;;;;3.50;3.50;;;;;13.61;100.00;98876.44;4979839;28;102354;-72
2023/06/24 23:01:14;;;;;;;;;4.00;4.00;;;;;13.55;100.00;98887.34;4992801;28;102359;-71
2023/06/24 23:03:42;;;;;;;;;3.25;3.25;;;;;13.50;100.00;98865.41;4981434;28;104085;-72
2023/06/24 23:06:09;;;;;;;;;3.00;3.00;;;;;13.50;100.00;98868.13;4976511;28;102173;-72
2023/06/24 23:08:36;;;;;;;;;2.50;2.50;;;;;13.39;100.00;98862.28;4987691;28;102312;-73
2023/06/24 23:11:04;;;;;;;;;4.00;4.00;;;;;13.27;100.00;98858.56;4996156;28;101996;-72
2023/06/24 23:13:33;;;;;;;;;2.75;2.75;;;;;13.30;100.00;98857.28;4992917;28;104054;-72
2023/06/24 23:16:02;;;;;;;;;4.00;3.50;;;;;13.21;100.00;98848.53;4973839;28;102115;-72
2023/06/24 23:18:30;;;;;;;;;2.50;2.50;;;;;13.32;100.00;98861.50;4966246;28;102318;-72
2023/06/24 23:20:57;;;;;;;;;3.75;3.00;;;;;13.32;100.00;98858.78;4988426;27;101969;-73
2023/06/24 23:23:26;;;;;;;;;2.25;2.25;;;;;13.29;100.00;98851.03;4988088;28;104010;-73
2023/06/24 23:25:53;;;;;;;;;2.00;2.00;;;;;13.31;100.00;98853.53;4988514;28;102415;-72
2023/06/24 23:28:21;;;;;;;;;2.50;2.50;;;;;13.28;100.00;98852.06;4985859;28;101994;-72
2023/06/24 23:30:50;;;;;;;;;2.00;2.00;;;;;13.26;100.00;98856.88;4988703;28;102321;-72
2023/06/24 23:33:17;;;;;;;;;4.25;2.75;;;;;13.24;100.00;98853.53;4989510;28;104019;-72
2023/06/24 23:35:47;;;;;;;;;3.75;3.25;;;;;13.18;100.00;98846.25;4988451;28;102251;-72
2023/06/24 23:38:18;;;;;;;;;3.75;3.00;;;;;13.14;100.00;98852.31;4979649;28;102132;-72
2023/06/24 23:40:45;;;;;;;;;2.50;2.50;;;;;13.04;100.00;98852.72;4983192;28;101944;-72
2023/06/24 23:43:15;;;;;;;;;3.00;3.00;;;;;13.02;100.00;98852.09;4992116;28;104255;-73
2023/06/24 23:45:48;;;;;;;;;4.00;4.00;;;;;12.97;100.00;98852.72;4986706;28;102350;-71
2023/06/24 23:48:16;;;;;;;;;4.75;4.75;;;;;12.96;100.00;98844.81;4977503;28;102291;-72
2023/06/24 23:50:43;;;;;;;;;4.25;4.00;;;;;12.90;100.00;98840.19;4984712;28;102512;-72
2023/06/24 23:53:10;;;;;;;;;6.50;6.00;;;;;12.90;100.00;98848.34;4983448;28;104442;-72
2023/06/24 23:55:37;;;;;;;;;3.75;3.00;;;;;12.87;100.00;98851.50;4993746;28;101990;-73
2023/06/24 23:58:04;;;;;;;;;6.25;5.50;;;;;12.86;100.00;98838.97;4984167;28;102994;-72
